Salem, Michigan
Current Conditions -  °F | °C
As of 12:53 PM on Thursday 29 Jan 2015 (Local Time) from KYIP Reporting Station
Overcast Overcast  
Wind Chill:   Ceiling: 2800
Heat Index:   Visibility: 10mi
Dew Point: -3°   Wind: 5mph
Humidity: 70%   Direction: 250°WSW
Pressure: 29.72"   Gusts: NA
Location:  42.41°N, 83.58°W
Report Text: KYIP 291753Z 25004KT 10SM OVC028 02/M03 A2972 RMK AO2 SLP068 60000 I6000 T00221028 10028 21006 56015
Loading
Personal Weather Stations






























Interactive Weather Map New forecast layout! Learn more

10-Day Weather Forecast

Advertisements
Track Severe Weather on mobile